Adams Cove, New York
Current Conditions -  °F | °C
As of 3:56 PM on Friday 24 Oct 2014 (Local Time) from KART Reporting Station
Clear Clear  
Wind Chill: 59°   Ceiling: Unl
Heat Index: 59°   Visibility: 10mi
Dew Point: 42°   Wind: 12mph
Humidity: 53%   Direction: 240°WSW
Pressure: 29.88"   Gusts: NA
Location:  44.0116°N, 76.0789°W
Report Text: KART 241956Z AUTO 24010KT 10SM CLR 15/06 A2988 RMK AO2 SLP117 T01500056
Loading
Personal Weather Stations






























Interactive Weather Map
Tropical Storm Tracking
New forecast layout! Learn more

10-Day Weather Forecast

Advertisements
Track Severe Weather on mobile